Time;durP1;ratioP1;P1;durP2;ratioP2;P2;SDS_P1;SDS_P2;PMS_P1;PMS_P2;Temp;Humidity;BMP_temperature;BMP_pressure;BME280_temperature;BME280_humidity;BME280_pressure;Samples;Min_cycle;Max_cycle;Signal;HPM_P1;HPM_P2
2022/07/09 00:02:17;;;;;;;2.33;1.17;;;14.80;64.90;;;;;;5097326;28;20587;-63
2022/07/09 00:04:43;;;;;;;3.47;1.30;;;14.80;65.10;;;;;;5093421;28;20024;-61
2022/07/09 00:07:08;;;;;;;3.42;1.55;;;14.70;65.20;;;;;;5094856;28;20600;-65
2022/07/09 00:09:34;;;;;;;1.60;1.30;;;14.70;65.30;;;;;;5096157;28;20077;-65
2022/07/09 00:11:59;;;;;;;3.20;1.50;;;14.70;65.50;;;;;;5093346;27;20035;-65
2022/07/09 00:14:25;;;;;;;2.53;1.35;;;14.60;65.40;;;;;;5093512;27;22257;-64
2022/07/09 00:16:51;;;;;;;5.70;1.33;;;14.60;65.70;;;;;;5094654;28;20032;-64
2022/07/09 00:19:16;;;;;;;2.33;1.20;;;14.50;65.50;;;;;;5095603;28;20104;-64
2022/07/09 00:21:42;;;;;;;5.25;1.40;;;14.50;65.50;;;;;;5096229;28;20059;-65
2022/07/09 00:24:08;;;;;;;2.20;1.25;;;14.50;65.70;;;;;;5097949;28;20372;-64
2022/07/09 00:26:34;;;;;;;2.47;1.20;;;14.50;65.70;;;;;;5096426;27;20042;-64
2022/07/09 00:29:00;;;;;;;2.33;1.30;;;14.40;66.00;;;;;;5096653;28;20164;-65
2022/07/09 00:31:25;;;;;;;2.38;1.50;;;14.40;67.00;;;;;;5096180;27;20477;-64
2022/07/09 00:33:51;;;;;;;2.42;1.23;;;14.30;66.00;;;;;;5095882;28;20031;-66
2022/07/09 00:36:17;;;;;;;1.45;1.20;;;14.30;66.00;;;;;;5095067;28;20040;-64
2022/07/09 00:38:42;;;;;;;1.58;1.23;;;14.30;66.20;;;;;;5094685;28;20031;-65
2022/07/09 00:41:08;;;;;;;1.55;1.20;;;14.30;66.40;;;;;;5095011;28;20047;-66
2022/07/09 00:43:34;;;;;;;2.92;1.25;;;14.30;66.40;;;;;;5096788;28;20084;-65
2022/07/09 00:45:59;;;;;;;3.47;1.63;;;14.30;66.40;;;;;;5094492;28;20027;-65
2022/07/09 00:48:25;;;;;;;1.33;1.10;;;14.30;66.50;;;;;;5093966;28;20093;-65
2022/07/09 00:50:51;;;;;;;2.75;1.40;;;14.30;66.50;;;;;;5093819;28;20035;-64
2022/07/09 00:53:22;;;;;;;3.00;1.13;;;14.30;66.50;;;;;;5092633;28;20167;-65
2022/07/09 00:55:48;;;;;;;2.63;1.05;;;14.40;66.60;;;;;;5094217;27;20494;-65
2022/07/09 00:58:19;;;;;;;1.40;1.23;;;14.40;66.20;;;;;;5093922;28;20028;-65
2022/07/09 01:00:45;;;;;;;2.20;1.50;;;14.40;66.50;;;;;;5095616;28;20070;-66
2022/07/09 01:03:11;;;;;;;1.80;1.35;;;14.50;66.20;;;;;;5094013;28;20043;-66
2022/07/09 01:05:37;;;;;;;2.28;1.50;;;14.50;66.10;;;;;;5094578;28;20566;-65
2022/07/09 01:08:04;;;;;;;2.28;1.20;;;14.50;65.90;;;;;;5093674;28;20159;-63
2022/07/09 01:10:31;;;;;;;3.35;1.13;;;14.50;65.90;;;;;;5101196;27;20039;-63
2022/07/09 01:12:57;;;;;;;2.72;1.40;;;14.50;65.80;;;;;;5094679;28;20027;-65
2022/07/09 01:15:23;;;;;;;1.25;1.13;;;14.50;65.90;;;;;;5094672;28;20052;-64
2022/07/09 01:17:51;;;;;;;1.23;1.13;;;14.50;66.00;;;;;;5092136;28;20494;-64
2022/07/09 01:20:23;;;;;;;1.60;1.20;;;14.40;66.10;;;;;;5095621;28;20040;-66
2022/07/09 01:22:49;;;;;;;2.25;1.20;;;14.40;66.40;;;;;;5093261;28;20564;-64
2022/07/09 01:25:17;;;;;;;2.17;1.55;;;14.30;66.30;;;;;;5091730;28;20494;-64
2022/07/09 01:27:43;;;;;;;3.03;1.38;;;14.30;66.50;;;;;;5095694;28;20328;-64
2022/07/09 01:30:09;;;;;;;2.58;1.30;;;14.30;66.60;;;;;;5092024;28;20031;-64
2022/07/09 01:32:35;;;;;;;2.80;1.40;;;14.20;66.50;;;;;;5094420;28;20324;-64
2022/07/09 01:35:01;;;;;;;1.73;1.30;;;14.20;66.70;;;;;;5095303;28;20073;-64
2022/07/09 01:37:27;;;;;;;2.70;1.40;;;14.20;66.70;;;;;;5094129;28;20036;-64
2022/07/09 01:39:52;;;;;;;1.70;1.30;;;14.10;66.70;;;;;;5093685;28;20030;-64
2022/07/09 01:42:21;;;;;;;2.25;1.30;;;14.10;66.90;;;;;;5094117;28;20587;-64
2022/07/09 01:44:50;;;;;;;3.20;1.63;;;14.10;67.30;;;;;;5093090;28;20086;-65
2022/07/09 01:47:16;;;;;;;1.77;1.35;;;14.00;67.30;;;;;;5094747;28;20173;-65
2022/07/09 01:49:42;;;;;;;3.13;1.38;;;14.00;67.40;;;;;;5093649;28;20443;-64
2022/07/09 01:52:08;;;;;;;3.15;1.30;;;14.00;67.30;;;;;;5092976;28;20036;-65
2022/07/09 01:54:34;;;;;;;1.95;1.38;;;13.90;67.30;;;;;;5092988;28;20123;-63
2022/07/09 01:56:59;;;;;;;2.05;1.60;;;13.90;67.40;;;;;;5091889;28;20130;-65
2022/07/09 01:59:25;;;;;;;1.92;1.42;;;13.90;67.60;;;;;;5094531;28;20039;-65
2022/07/09 02:01:50;;;;;;;1.60;1.50;;;13.80;67.80;;;;;;5091224;28;20100;-64
2022/07/09 02:04:16;;;;;;;2.30;1.40;;;13.80;68.00;;;;;;5093003;28;20063;-64
2022/07/09 02:06:42;;;;;;;2.00;1.40;;;13.80;68.20;;;;;;5094106;28;20036;-65
2022/07/09 02:09:07;;;;;;;1.52;1.30;;;13.70;68.30;;;;;;5092514;28;20391;-64
2022/07/09 02:11:33;;;;;;;1.73;1.40;;;13.70;68.50;;;;;;5091887;28;20036;-65
2022/07/09 02:13:58;;;;;;;2.40;1.55;;;13.70;68.80;;;;;;5094126;28;20059;-64
2022/07/09 02:16:24;;;;;;;2.90;1.60;;;13.60;68.90;;;;;;5093383;28;20067;-65
2022/07/09 02:18:50;;;;;;;3.00;1.60;;;13.60;69.00;;;;;;5095093;28;20036;-65
2022/07/09 02:21:16;;;;;;;1.73;1.52;;;13.60;69.00;;;;;;5093466;28;20048;-66
2022/07/09 02:23:42;;;;;;;4.32;1.30;;;13.50;69.00;;;;;;5093919;28;20058;-66
2022/07/09 02:26:08;;;;;;;1.85;1.33;;;13.50;69.00;;;;;;5093435;28;20503;-66
2022/07/09 02:28:33;;;;;;;3.55;1.30;;;13.50;69.10;;;;;;5093947;28;20032;-65
2022/07/09 02:30:59;;;;;;;3.63;1.48;;;13.40;69.00;;;;;;5097440;28;20110;-64
2022/07/09 02:33:25;;;;;;;2.75;1.55;;;13.40;69.00;;;;;;5097959;28;20031;-64
2022/07/09 02:35:50;;;;;;;2.92;1.50;;;13.40;69.00;;;;;;5097900;28;20036;-65
2022/07/09 02:38:16;;;;;;;1.80;1.45;;;13.30;69.00;;;;;;5097236;28;20038;-65
2022/07/09 02:40:42;;;;;;;2.53;1.35;;;13.30;69.30;;;;;;5096613;28;20032;-65
2022/07/09 02:43:07;;;;;;;5.13;1.48;;;13.20;69.30;;;;;;5080244;28;20031;-64
2022/07/09 02:45:33;;;;;;;2.10;1.33;;;13.30;69.40;;;;;;5097570;28;20063;-63
2022/07/09 02:47:58;;;;;;;3.60;1.38;;;13.30;69.40;;;;;;5097365;28;20487;-65
2022/07/09 02:50:24;;;;;;;2.33;1.40;;;13.30;69.30;;;;;;5096416;28;20110;-65
2022/07/09 02:52:50;;;;;;;1.95;1.38;;;13.30;69.20;;;;;;5096680;28;20059;-65
2022/07/09 02:55:16;;;;;;;1.30;1.20;;;13.30;69.20;;;;;;5094966;28;20059;-64
2022/07/09 02:57:41;;;;;;;3.40;1.50;;;13.30;69.00;;;;;;5096519;28;20032;-65
2022/07/09 03:00:08;;;;;;;1.98;1.75;;;13.30;69.20;;;;;;5096423;28;20351;-65
2022/07/09 03:02:34;;;;;;;2.58;1.70;;;13.20;69.20;;;;;;5095895;28;20027;-64
2022/07/09 03:04:59;;;;;;;2.10;1.65;;;13.20;69.30;;;;;;5096212;28;20461;-65
2022/07/09 03:07:25;;;;;;;2.85;1.58;;;13.10;69.40;;;;;;5095329;28;20071;-65
2022/07/09 03:09:50;;;;;;;3.88;1.92;;;13.20;70.50;;;;;;5096031;28;20039;-65
2022/07/09 03:12:16;;;;;;;2.33;1.50;;;13.10;69.70;;;;;;5098142;28;20039;-65
2022/07/09 03:14:42;;;;;;;3.75;1.90;;;13.10;69.50;;;;;;5097635;28;20027;-65
2022/07/09 03:17:08;;;;;;;2.42;1.58;;;13.10;69.60;;;;;;5098049;27;20024;-64
2022/07/09 03:19:33;;;;;;;1.92;1.55;;;13.10;69.70;;;;;;5099787;28;20031;-65
2022/07/09 03:21:59;;;;;;;2.97;1.42;;;13.20;69.60;;;;;;5096836;28;20429;-66
2022/07/09 03:24:24;;;;;;;2.88;1.63;;;13.20;69.40;;;;;;5098667;27;20047;-64
2022/07/09 03:26:50;;;;;;;2.08;1.67;;;13.20;69.40;;;;;;5098210;28;20232;-66
2022/07/09 03:29:15;;;;;;;2.22;1.45;;;13.10;69.30;;;;;;5098206;28;20119;-64
2022/07/09 03:31:41;;;;;;;3.60;1.63;;;13.10;69.60;;;;;;5098063;28;20062;-64
2022/07/09 03:34:07;;;;;;;2.63;1.60;;;13.10;69.70;;;;;;5097083;28;20036;-64
2022/07/09 03:36:32;;;;;;;4.22;1.92;;;13.00;69.80;;;;;;5098222;28;20406;-66
2022/07/09 03:38:58;;;;;;;3.28;1.80;;;13.00;69.90;;;;;;5098114;28;20036;-64
2022/07/09 03:41:24;;;;;;;1.83;1.70;;;13.00;70.00;;;;;;5097568;28;20043;-65
2022/07/09 03:43:49;;;;;;;2.00;1.70;;;13.00;70.20;;;;;;5097958;28;20499;-65
2022/07/09 03:46:15;;;;;;;4.90;1.70;;;12.90;71.10;;;;;;5098943;28;20039;-65
2022/07/09 03:48:41;;;;;;;2.25;1.90;;;12.90;70.40;;;;;;5097660;28;20036;-65
2022/07/09 03:51:06;;;;;;;4.63;1.50;;;12.90;70.40;;;;;;5098922;28;20085;-64
2022/07/09 03:53:33;;;;;;;2.35;1.70;;;12.90;70.50;;;;;;5096211;28;20040;-63
2022/07/09 03:55:58;;;;;;;1.95;1.58;;;12.90;70.60;;;;;;5096958;28;20043;-64
2022/07/09 03:58:24;;;;;;;4.22;1.63;;;12.90;70.60;;;;;;5096982;28;20028;-66
2022/07/09 04:00:52;;;;;;;1.70;1.58;;;12.90;70.60;;;;;;5095656;27;20045;-65
2022/07/09 04:03:17;;;;;;;2.78;1.77;;;12.90;70.60;;;;;;5096503;28;20043;-64
2022/07/09 04:05:44;;;;;;;2.90;1.70;;;12.90;70.70;;;;;;5096795;28;20032;-64
2022/07/09 04:08:10;;;;;;;2.30;1.73;;;12.80;70.60;;;;;;5097070;28;20692;-64
2022/07/09 04:10:36;;;;;;;2.17;1.83;;;12.90;70.90;;;;;;5094036;27;20491;-64
2022/07/09 04:13:01;;;;;;;2.25;1.42;;;12.80;70.90;;;;;;5096758;27;20035;-64
2022/07/09 04:15:27;;;;;;;2.70;1.60;;;12.90;71.10;;;;;;5097423;28;20036;-64
2022/07/09 04:17:53;;;;;;;1.70;1.42;;;12.90;71.00;;;;;;5097109;28;20059;-64
2022/07/09 04:20:19;;;;;;;2.05;1.65;;;12.90;70.90;;;;;;5096316;28;20093;-64
2022/07/09 04:22:44;;;;;;;1.98;1.58;;;12.90;70.80;;;;;;5096513;28;20092;-65
2022/07/09 04:25:10;;;;;;;2.38;1.70;;;13.00;70.80;;;;;;5096328;27;20048;-65
2022/07/09 04:27:38;;;;;;;2.63;1.73;;;13.00;70.80;;;;;;5095733;28;20126;-64
2022/07/09 04:30:06;;;;;;;2.40;1.70;;;13.00;70.90;;;;;;5095367;28;20418;-64
2022/07/09 04:32:31;;;;;;;2.22;1.58;;;13.10;70.90;;;;;;5093081;27;20028;-64
2022/07/09 04:34:57;;;;;;;2.00;1.65;;;13.10;70.70;;;;;;5095053;28;20394;-64
2022/07/09 04:37:23;;;;;;;2.05;1.73;;;13.20;71.60;;;;;;5094636;28;20032;-63
2022/07/09 04:39:48;;;;;;;3.58;1.83;;;13.20;70.70;;;;;;5095253;28;20043;-64
2022/07/09 04:42:14;;;;;;;4.43;1.80;;;13.20;70.90;;;;;;5093873;28;20160;-64
2022/07/09 04:44:41;;;;;;;4.43;1.92;;;13.20;71.10;;;;;;5092792;28;20036;-64
2022/07/09 04:47:07;;;;;;;3.38;1.83;;;13.20;71.10;;;;;;5096193;28;20537;-65
2022/07/09 04:49:33;;;;;;;3.05;1.77;;;13.20;71.30;;;;;;5096171;28;20027;-63
2022/07/09 04:51:58;;;;;;;2.30;1.70;;;13.20;71.60;;;;;;5095322;28;20082;-64
2022/07/09 04:54:24;;;;;;;6.78;1.85;;;13.10;71.70;;;;;;5074892;28;20512;-64
2022/07/09 04:56:50;;;;;;;2.42;1.50;;;13.10;72.00;;;;;;5095770;28;20716;-64
2022/07/09 04:59:15;;;;;;;3.90;1.60;;;13.20;72.20;;;;;;5092362;28;20035;-64
2022/07/09 05:01:41;;;;;;;3.20;2.10;;;13.20;72.30;;;;;;5095330;28;20050;-64
2022/07/09 05:04:06;;;;;;;3.72;1.80;;;13.20;72.30;;;;;;5094637;28;20054;-65
2022/07/09 05:06:32;;;;;;;4.47;1.80;;;13.20;72.50;;;;;;5094300;28;20065;-64
2022/07/09 05:08:58;;;;;;;4.25;2.15;;;13.30;72.70;;;;;;5094434;28;20039;-64
2022/07/09 05:11:24;;;;;;;6.40;2.13;;;13.30;72.80;;;;;;5094537;27;20407;-63
2022/07/09 05:13:49;;;;;;;4.28;1.80;;;13.40;72.80;;;;;;5082021;28;20028;-64
2022/07/09 05:16:15;;;;;;;3.42;2.28;;;13.50;72.80;;;;;;5093712;28;20122;-64
2022/07/09 05:18:40;;;;;;;4.47;2.08;;;13.60;72.90;;;;;;5094788;28;20039;-65
2022/07/09 05:21:06;;;;;;;8.57;2.53;;;13.70;73.00;;;;;;5094085;28;20118;-64
2022/07/09 05:23:31;;;;;;;3.95;2.30;;;13.70;72.60;;;;;;5074520;28;20040;-64
2022/07/09 05:25:57;;;;;;;2.55;2.20;;;13.80;72.60;;;;;;5094845;28;20115;-64
2022/07/09 05:28:23;;;;;;;5.75;2.30;;;13.90;72.60;;;;;;5093755;28;20047;-66
2022/07/09 05:30:48;;;;;;;3.90;2.30;;;14.00;72.80;;;;;;5092976;28;20600;-64
2022/07/09 05:33:14;;;;;;;6.35;2.13;;;14.10;72.80;;;;;;5096180;28;20032;-65
2022/07/09 05:35:40;;;;;;;3.13;2.60;;;14.10;72.50;;;;;;5094941;28;20118;-65
2022/07/09 05:38:05;;;;;;;7.30;2.17;;;14.20;72.50;;;;;;5094148;28;20653;-65
2022/07/09 05:40:31;;;;;;;6.72;2.50;;;14.20;72.40;;;;;;5093687;28;20096;-64
2022/07/09 05:42:57;;;;;;;4.18;2.10;;;14.30;72.20;;;;;;5094415;28;20089;-65
2022/07/09 05:45:23;;;;;;;2.08;1.90;;;14.40;72.00;;;;;;5095359;28;20110;-65
2022/07/09 05:47:48;;;;;;;4.47;1.88;;;14.50;71.90;;;;;;5093814;28;20076;-63
2022/07/09 05:50:14;;;;;;;4.05;2.00;;;14.50;71.80;;;;;;5089956;28;20237;-65
2022/07/09 05:52:39;;;;;;;3.92;1.98;;;14.60;71.70;;;;;;5093882;28;20039;-64
2022/07/09 05:55:05;;;;;;;2.47;1.90;;;14.70;71.70;;;;;;5092339;28;20472;-64
2022/07/09 05:57:31;;;;;;;3.40;2.20;;;14.70;71.70;;;;;;5091829;28;20039;-64
2022/07/09 05:59:57;;;;;;;3.58;2.42;;;14.80;71.80;;;;;;5093959;28;20028;-65
2022/07/09 06:02:23;;;;;;;3.22;2.17;;;14.80;71.90;;;;;;5090030;28;20043;-64
2022/07/09 06:04:49;;;;;;;4.13;2.45;;;14.90;71.60;;;;;;5095666;28;20038;-65
2022/07/09 06:07:14;;;;;;;4.70;2.30;;;15.00;71.70;;;;;;5095490;28;20482;-65
2022/07/09 06:09:40;;;;;;;3.47;2.28;;;15.10;71.30;;;;;;5099954;28;20032;-64
2022/07/09 06:12:07;;;;;;;5.07;2.30;;;15.10;70.80;;;;;;5097556;28;20054;-64
2022/07/09 06:14:33;;;;;;;3.78;1.98;;;15.20;70.70;;;;;;5097788;27;20175;-66
2022/07/09 06:17:05;;;;;;;2.40;2.20;;;15.30;70.60;;;;;;5099664;28;20115;-64
2022/07/09 06:19:31;;;;;;;4.20;2.40;;;15.40;70.70;;;;;;5098956;27;20548;-64
2022/07/09 06:21:56;;;;;;;2.95;2.28;;;15.40;71.20;;;;;;5096471;28;20534;-64
2022/07/09 06:24:24;;;;;;;3.63;2.42;;;15.50;71.30;;;;;;5095403;28;20123;-65
2022/07/09 06:26:49;;;;;;;6.97;2.25;;;15.60;71.20;;;;;;5097106;27;20564;-64
2022/07/09 06:29:15;;;;;;;3.53;2.25;;;15.70;71.00;;;;;;5096702;28;20032;-65
2022/07/09 06:31:41;;;;;;;4.78;2.40;;;15.70;70.90;;;;;;5097011;28;20031;-65
2022/07/09 06:34:07;;;;;;;3.47;2.40;;;15.80;70.70;;;;;;5099566;28;20278;-64
2022/07/09 06:36:33;;;;;;;4.32;2.67;;;15.90;70.60;;;;;;5099591;28;20036;-64
2022/07/09 06:41:43;;;;;;;2.80;2.13;;;16.10;70.20;;;;;;5095621;28;20698;-64
2022/07/09 06:44:08;;;;;;;3.65;2.25;;;16.20;70.00;;;;;;5096019;27;20293;-66
2022/07/09 06:46:35;;;;;;;4.28;2.30;;;16.40;70.00;;;;;;5096794;28;20032;-65
2022/07/09 06:49:01;;;;;;;3.53;2.30;;;16.40;69.90;;;;;;5096177;28;20038;-64
2022/07/09 06:51:26;;;;;;;5.07;2.50;;;16.60;69.90;;;;;;5097594;28;20039;-65
2022/07/09 06:53:52;;;;;;;6.25;2.25;;;16.70;69.90;;;;;;5094100;28;20081;-65
2022/07/09 06:56:18;;;;;;;2.97;2.10;;;16.80;70.60;;;;;;5095884;28;20031;-64
2022/07/09 06:58:43;;;;;;;3.28;1.98;;;16.90;69.50;;;;;;5096547;27;20046;-64
2022/07/09 07:01:09;;;;;;;4.72;1.98;;;17.10;69.50;;;;;;5095647;28;20050;-64
2022/07/09 07:03:34;;;;;;;3.47;2.72;;;17.20;69.20;;;;;;5094371;28;20259;-65
2022/07/09 07:06:00;;;;;;;3.90;2.53;;;17.30;69.00;;;;;;5098885;28;20031;-64
2022/07/09 07:08:25;;;;;;;4.70;2.22;;;17.50;69.10;;;;;;5096097;28;20028;-63
2022/07/09 07:10:51;;;;;;;3.10;2.20;;;17.60;69.00;;;;;;5094228;27;20089;-65
2022/07/09 07:13:17;;;;;;;2.40;2.17;;;17.70;68.60;;;;;;5098108;28;20576;-64
2022/07/09 07:15:44;;;;;;;4.13;1.85;;;17.80;68.10;;;;;;5097770;28;20221;-63
2022/07/09 07:18:10;;;;;;;5.30;2.00;;;18.00;67.90;;;;;;5098516;28;20578;-63
2022/07/09 07:20:35;;;;;;;2.38;1.63;;;18.10;67.20;;;;;;5098765;28;20040;-63
2022/07/09 07:23:01;;;;;;;7.05;2.00;;;18.20;66.60;;;;;;5097937;28;20457;-64
2022/07/09 07:25:26;;;;;;;4.75;1.90;;;18.40;66.40;;;;;;5097508;28;20262;-66
2022/07/09 07:27:52;;;;;;;4.07;1.80;;;18.50;65.90;;;;;;5096724;28;20526;-64
2022/07/09 07:30:18;;;;;;;1.65;1.15;;;18.70;65.50;;;;;;5095633;28;20031;-65
2022/07/09 07:32:43;;;;;;;5.30;1.45;;;18.80;64.30;;;;;;5095899;28;20039;-64
2022/07/09 07:35:09;;;;;;;6.68;1.35;;;18.90;63.40;;;;;;5098311;28;20412;-64
2022/07/09 07:37:35;;;;;;;3.13;1.30;;;19.00;62.70;;;;;;5098008;28;20034;-65
2022/07/09 07:40:00;;;;;;;2.25;1.48;;;19.20;62.50;;;;;;5098749;28;20436;-65
2022/07/09 07:42:26;;;;;;;3.35;1.50;;;19.30;61.20;;;;;;5096401;28;20036;-65
2022/07/09 07:44:52;;;;;;;3.10;1.23;;;19.40;60.50;;;;;;5095810;28;20126;-65
2022/07/09 07:47:17;;;;;;;3.50;1.20;;;19.60;60.70;;;;;;5096329;28;20100;-65
2022/07/09 07:49:43;;;;;;;4.07;1.08;;;19.70;60.30;;;;;;5097153;28;20071;-65
2022/07/09 07:52:09;;;;;;;2.08;0.80;;;19.80;59.40;;;;;;5096114;28;20106;-65
2022/07/09 07:54:36;;;;;;;4.13;0.98;;;20.00;57.90;;;;;;5095306;28;20036;-65
2022/07/09 07:57:01;;;;;;;2.03;0.93;;;20.00;57.10;;;;;;5096805;28;20103;-64
2022/07/09 07:59:27;;;;;;;2.08;0.90;;;20.10;57.20;;;;;;5094858;28;22538;-64
2022/07/09 08:01:52;;;;;;;2.05;1.10;;;20.20;57.10;;;;;;5096112;28;20415;-65
2022/07/09 08:04:18;;;;;;;2.05;0.80;;;20.40;56.30;;;;;;5094781;28;20739;-64
2022/07/09 08:06:44;;;;;;;3.65;1.00;;;20.50;56.50;;;;;;5095187;28;20091;-63
2022/07/09 08:09:09;;;;;;;1.83;0.73;;;20.60;57.10;;;;;;5085642;27;20028;-65
2022/07/09 08:11:35;;;;;;;2.78;0.90;;;20.70;57.00;;;;;;5090015;27;20492;-64
2022/07/09 08:14:01;;;;;;;1.42;0.90;;;20.80;56.80;;;;;;5090655;28;20035;-64
2022/07/09 08:16:27;;;;;;;3.10;1.10;;;20.90;56.50;;;;;;5094699;27;20040;-64
2022/07/09 08:18:52;;;;;;;2.17;0.93;;;21.00;56.90;;;;;;5093104;27;20036;-64
2022/07/09 08:21:18;;;;;;;1.33;0.80;;;21.20;56.40;;;;;;5094927;27;20066;-64
2022/07/09 08:23:51;;;;;;;3.17;0.85;;;21.30;55.90;;;;;;5093526;28;20079;-64
2022/07/09 08:26:28;;;;;;;34.00;2.13;;;21.40;55.60;;;;;;5096061;27;20028;-65
2022/07/09 08:28:54;;;;;;;2.10;0.80;;;21.60;54.50;;;;;;5075073;28;20035;-64
2022/07/09 08:31:21;;;;;;;3.30;0.82;;;21.70;54.70;;;;;;5092591;28;20071;-64
2022/07/09 08:33:47;;;;;;;1.40;0.70;;;21.70;55.00;;;;;;5091966;27;20031;-64
2022/07/09 08:36:13;;;;;;;2.13;0.90;;;21.80;54.00;;;;;;5092185;27;20039;-64
2022/07/09 08:38:39;;;;;;;3.72;1.00;;;21.90;54.10;;;;;;5094426;27;20028;-64
2022/07/09 08:41:05;;;;;;;4.28;0.90;;;22.10;54.30;;;;;;5094114;28;20100;-65
2022/07/09 08:43:38;;;;;;;1.70;0.88;;;22.20;54.40;;;;;;5090925;27;20031;-65
2022/07/09 08:46:05;;;;;;;2.63;0.60;;;22.30;54.10;;;;;;5094417;27;20040;-64
2022/07/09 08:48:36;;;;;;;4.38;0.80;;;22.40;54.20;;;;;;5092648;27;20498;-64
2022/07/09 08:51:03;;;;;;;2.00;0.80;;;22.60;53.60;;;;;;5092813;28;20039;-64
2022/07/09 08:53:29;;;;;;;3.85;0.75;;;22.70;53.80;;;;;;5092168;27;20039;-64
2022/07/09 08:55:56;;;;;;;2.88;0.93;;;22.90;53.50;;;;;;5093748;27;20027;-64
2022/07/09 08:58:22;;;;;;;5.20;0.98;;;23.00;53.20;;;;;;5090802;28;20036;-64
2022/07/09 09:00:50;;;;;;;2.28;0.90;;;23.00;53.00;;;;;;5094715;27;20041;-64
2022/07/09 09:03:17;;;;;;;3.00;1.00;;;23.10;52.90;;;;;;5096213;27;20027;-65
2022/07/09 09:05:43;;;;;;;1.23;0.60;;;23.20;52.60;;;;;;5096303;27;20031;-64
2022/07/09 09:08:19;;;;;;;2.63;0.80;;;23.20;52.80;;;;;;5102538;27;20406;-64
2022/07/09 09:10:46;;;;;;;2.00;0.90;;;23.30;52.30;;;;;;5094556;28;20502;-65
2022/07/09 09:13:18;;;;;;;3.80;0.65;;;23.40;52.30;;;;;;5097219;27;20061;-65
2022/07/09 09:15:44;;;;;;;2.15;0.50;;;23.50;51.90;;;;;;5096245;27;20423;-65
2022/07/09 09:18:10;;;;;;;2.10;0.60;;;23.60;51.60;;;;;;5098977;28;20020;-64
2022/07/09 09:20:36;;;;;;;1.13;0.50;;;23.70;51.60;;;;;;5096403;28;20035;-64
2022/07/09 09:23:09;;;;;;;1.08;0.60;;;23.70;51.00;;;;;;5096659;28;20089;-64
2022/07/09 09:25:35;;;;;;;2.28;0.73;;;23.80;50.70;;;;;;5093611;28;20112;-63
2022/07/09 09:28:01;;;;;;;1.30;0.63;;;23.80;50.20;;;;;;5096359;28;20518;-64
2022/07/09 09:30:29;;;;;;;1.45;0.68;;;23.90;50.70;;;;;;5094772;28;20028;-64
2022/07/09 09:33:03;;;;;;;2.33;0.40;;;23.90;49.90;;;;;;5096801;28;20039;-64
2022/07/09 09:35:46;;;;;;;1.05;0.50;;;24.00;49.40;;;;;;5095422;28;20070;-65
2022/07/09 09:38:12;;;;;;;2.97;0.82;;;24.00;48.90;;;;;;5095968;28;20035;-65
2022/07/09 09:40:39;;;;;;;1.00;0.47;;;24.10;49.60;;;;;;5099709;28;20039;-64
2022/07/09 09:43:04;;;;;;;2.92;0.80;;;24.10;50.10;;;;;;5100262;27;20024;-66
2022/07/09 09:45:32;;;;;;;2.10;0.60;;;24.20;49.30;;;;;;5099342;27;20032;-65
2022/07/09 09:47:59;;;;;;;2.13;0.60;;;24.30;49.70;;;;;;5100850;28;20495;-65
2022/07/09 09:50:25;;;;;;;1.42;0.40;;;24.40;50.10;;;;;;5100226;27;20027;-65
2022/07/09 09:52:54;;;;;;;1.85;0.52;;;24.50;49.50;;;;;;5101175;27;20074;-65
2022/07/09 09:55:21;;;;;;;1.48;0.40;;;24.60;49.00;;;;;;5097994;28;20045;-64
2022/07/09 09:57:48;;;;;;;0.85;0.40;;;24.80;49.10;;;;;;5100388;28;20032;-65
2022/07/09 10:00:16;;;;;;;2.95;0.50;;;24.90;48.60;;;;;;5102213;28;20285;-63
2022/07/09 10:02:46;;;;;;;1.10;0.50;;;25.00;48.60;;;;;;5100053;27;20576;-65
2022/07/09 10:05:12;;;;;;;1.10;0.50;;;25.20;48.40;;;;;;5100937;27;20027;-64
2022/07/09 10:07:40;;;;;;;1.08;0.40;;;25.30;48.40;;;;;;5100802;28;20098;-63
2022/07/09 10:10:06;;;;;;;1.42;0.40;;;25.40;47.80;;;;;;5102233;28;20555;-64
2022/07/09 10:12:34;;;;;;;2.80;0.90;;;25.50;47.50;;;;;;5098915;28;20047;-65
2022/07/09 10:15:00;;;;;;;0.90;0.50;;;25.70;47.30;;;;;;5101635;28;20024;-64
2022/07/09 10:17:27;;;;;;;2.50;0.40;;;25.80;47.00;;;;;;5102051;28;20525;-64
2022/07/09 10:20:04;;;;;;;1.88;0.50;;;25.90;46.50;;;;;;5099185;28;20518;-64
2022/07/09 10:22:40;;;;;;;1.63;0.40;;;25.90;46.40;;;;;;5100043;28;20035;-65
2022/07/09 10:25:07;;;;;;;1.15;0.55;;;26.00;45.60;;;;;;5101303;28;20459;-64
2022/07/09 10:27:47;;;;;;;1.95;0.52;;;26.00;45.70;;;;;;5100099;28;20118;-64
2022/07/09 10:30:30;;;;;;;0.98;0.35;;;26.00;46.00;;;;;;5100416;28;20038;-64
2022/07/09 10:33:11;;;;;;;0.82;0.40;;;26.00;45.50;;;;;;5100237;28;22594;-63
2022/07/09 10:35:52;;;;;;;4.50;0.40;;;26.00;45.10;;;;;;5099175;28;20028;-64
2022/07/09 10:38:20;;;;;;;0.55;0.30;;;26.10;44.70;;;;;;5101613;28;20032;-64
2022/07/09 10:40:59;;;;;;;0.77;0.40;;;26.20;45.10;;;;;;5100049;28;20395;-64
2022/07/09 10:43:38;;;;;;;1.17;0.40;;;26.30;42.30;;;;;;5098103;28;20040;-65
2022/07/09 10:46:12;;;;;;;0.95;0.28;;;26.30;41.50;;;;;;5097323;27;20059;-64
2022/07/09 10:48:38;;;;;;;1.77;0.30;;;26.30;43.10;;;;;;5098638;28;20032;-64
2022/07/09 10:51:04;;;;;;;1.95;0.50;;;26.20;43.90;;;;;;5100003;28;20566;-64
2022/07/09 10:53:30;;;;;;;1.02;0.30;;;26.20;44.00;;;;;;5100898;28;20073;-64
2022/07/09 10:55:56;;;;;;;0.88;0.30;;;26.30;43.80;;;;;;5099767;28;20028;-64
2022/07/09 10:58:24;;;;;;;0.73;0.30;;;26.30;43.30;;;;;;5100060;27;20434;-65
2022/07/09 11:00:59;;;;;;;1.65;0.30;;;26.30;42.00;;;;;;5099967;28;20672;-65
2022/07/09 11:03:29;;;;;;;0.80;0.35;;;26.30;41.00;;;;;;5099986;28;20459;-65
2022/07/09 11:05:56;;;;;;;0.30;0.28;;;26.30;42.30;;;;;;5099714;28;20032;-64
2022/07/09 11:08:22;;;;;;;1.15;0.47;;;26.30;41.90;;;;;;5100197;28;20148;-65
2022/07/09 11:10:48;;;;;;;0.93;0.30;;;26.30;42.50;;;;;;5095217;27;20043;-64
2022/07/09 11:13:14;;;;;;;0.63;0.30;;;26.30;42.90;;;;;;5100180;28;20115;-64
2022/07/09 11:15:40;;;;;;;0.60;0.30;;;26.30;42.90;;;;;;5100665;28;20119;-65
2022/07/09 11:18:09;;;;;;;0.57;0.32;;;26.30;42.40;;;;;;5099427;28;20032;-64
2022/07/09 11:20:39;;;;;;;1.92;0.38;;;26.30;41.70;;;;;;5099854;28;20051;-65
2022/07/09 11:23:05;;;;;;;0.93;0.50;;;26.20;41.50;;;;;;5100540;28;20058;-64
2022/07/09 11:25:31;;;;;;;2.55;0.50;;;26.20;42.20;;;;;;5098649;28;20061;-63
2022/07/09 11:27:59;;;;;;;0.55;0.30;;;26.30;42.00;;;;;;5080379;28;20518;-63
2022/07/09 11:30:27;;;;;;;0.30;0.30;;;26.20;42.00;;;;;;5098202;28;20039;-65
2022/07/09 11:32:53;;;;;;;0.93;0.28;;;26.30;41.60;;;;;;5099111;28;20035;-62
2022/07/09 11:35:33;;;;;;;1.30;0.30;;;26.30;41.60;;;;;;5098260;28;20517;-64
2022/07/09 11:38:04;;;;;;;1.85;0.32;;;26.30;41.10;;;;;;5099278;28;20461;-64
2022/07/09 11:40:30;;;;;;;1.35;0.30;;;26.30;40.80;;;;;;5099356;28;20039;-63
2022/07/09 11:42:57;;;;;;;0.55;0.20;;;26.30;41.50;;;;;;5100189;28;20088;-64
2022/07/09 11:45:28;;;;;;;0.13;0.13;;;26.30;41.40;;;;;;5098555;28;20040;-64
2022/07/09 11:48:04;;;;;;;1.08;0.30;;;26.30;41.10;;;;;;5099461;28;20123;-63
2022/07/09 11:50:30;;;;;;;0.30;0.30;;;26.40;40.30;;;;;;5098521;28;20322;-64
2022/07/09 11:52:56;;;;;;;0.82;0.30;;;26.40;40.00;;;;;;5099325;28;20522;-64
2022/07/09 11:55:30;;;;;;;1.20;0.40;;;26.40;40.60;;;;;;5099425;28;20352;-64
2022/07/09 11:57:57;;;;;;;1.33;0.40;;;26.30;39.90;;;;;;5098916;28;20106;-64
2022/07/09 12:00:28;;;;;;;0.68;0.30;;;26.30;41.30;;;;;;5099486;28;20033;-64
2022/07/09 12:02:55;;;;;;;0.65;0.40;;;26.30;42.10;;;;;;5093971;28;20088;-63
2022/07/09 12:05:39;;;;;;;2.25;0.20;;;26.30;42.00;;;;;;5093862;28;20035;-64
2022/07/09 12:08:07;;;;;;;0.52;0.20;;;26.40;40.80;;;;;;5094755;28;20119;-64
2022/07/09 12:10:37;;;;;;;0.57;0.28;;;26.40;40.90;;;;;;5091818;28;20234;-63
2022/07/09 12:13:04;;;;;;;1.00;0.25;;;26.40;41.00;;;;;;5099489;28;20028;-64
2022/07/09 12:15:30;;;;;;;1.45;0.20;;;26.30;40.30;;;;;;5095315;28;20020;-65
2022/07/09 12:17:58;;;;;;;0.43;0.30;;;26.30;40.60;;;;;;5094570;28;20031;-64
2022/07/09 12:20:26;;;;;;;1.10;0.47;;;26.20;40.50;;;;;;5098418;28;20449;-64
2022/07/09 12:22:52;;;;;;;1.02;0.35;;;26.20;40.90;;;;;;5097801;28;20031;-64
2022/07/09 12:25:19;;;;;;;0.95;0.40;;;26.10;40.70;;;;;;5079921;28;20458;-64
2022/07/09 12:27:45;;;;;;;0.30;0.30;;;26.10;40.30;;;;;;5098598;28;20525;-64
2022/07/09 12:30:12;;;;;;;0.70;0.30;;;26.00;40.40;;;;;;5096633;28;20127;-64
2022/07/09 12:32:38;;;;;;;1.90;0.30;;;25.90;41.00;;;;;;5097993;28;20122;-65
2022/07/09 12:35:04;;;;;;;1.42;0.30;;;25.90;42.40;;;;;;5098349;28;20598;-64
2022/07/09 12:37:30;;;;;;;0.80;0.30;;;25.90;42.20;;;;;;5097036;28;20059;-64
2022/07/09 12:39:56;;;;;;;0.70;0.40;;;26.00;41.60;;;;;;5098375;28;20051;-64
2022/07/09 12:42:21;;;;;;;0.65;0.40;;;26.00;41.60;;;;;;5096911;28;20477;-64
2022/07/09 12:44:47;;;;;;;0.65;0.30;;;26.00;41.50;;;;;;5092909;27;20031;-63
2022/07/09 12:47:13;;;;;;;1.58;0.40;;;26.10;41.40;;;;;;5092305;28;20034;-64
2022/07/09 12:49:39;;;;;;;1.05;0.32;;;26.10;41.30;;;;;;5095589;28;20036;-64